sensor_id;sensor_type;location;lat;lon;timestamp;pressure;altitude;pressure_sealevel;temperature;humidity
54248;BME280;40161;39.768;2.722;2023-04-01T00:01:19;101140.72;;;16.89;58.42
54248;BME280;40161;39.768;2.722;2023-04-01T00:03:45;101133.63;;;16.74;58.65
54248;BME280;40161;39.768;2.722;2023-04-01T00:06:16;101174.81;;;16.93;59.11
54248;BME280;40161;39.768;2.722;2023-04-01T00:08:42;101161.75;;;16.76;59.26
54248;BME280;40161;39.768;2.722;2023-04-01T00:11:09;101124.16;;;16.25;61.07
54248;BME280;40161;39.768;2.722;2023-04-01T00:13:35;101166.47;;;16.65;60.91
54248;BME280;40161;39.768;2.722;2023-04-01T00:16:01;101143.13;;;16.55;59.76
54248;BME280;40161;39.768;2.722;2023-04-01T00:18:28;101145.09;;;16.58;60.53
54248;BME280;40161;39.768;2.722;2023-04-01T00:20:54;101160.53;;;16.45;61.39
54248;BME280;40161;39.768;2.722;2023-04-01T00:23:20;101158.56;;;16.45;61.09
54248;BME280;40161;39.768;2.722;2023-04-01T00:25:46;101158.53;;;16.17;62.10
54248;BME280;40161;39.768;2.722;2023-04-01T00:28:14;101151.44;;;16.12;62.27
54248;BME280;40161;39.768;2.722;2023-04-01T00:30:40;101153.00;;;16.24;62.27
54248;BME280;40161;39.768;2.722;2023-04-01T00:33:06;101137.59;;;16.33;62.01
54248;BME280;40161;39.768;2.722;2023-04-01T00:35:31;101146.31;;;16.32;61.73
54248;BME280;40161;39.768;2.722;2023-04-01T00:37:58;101150.63;;;16.08;61.95
54248;BME280;40161;39.768;2.722;2023-04-01T00:42:58;101104.75;;;16.07;62.34
54248;BME280;40161;39.768;2.722;2023-04-01T00:45:36;101145.53;;;16.28;61.90
54248;BME280;40161;39.768;2.722;2023-04-01T00:48:23;101132.03;;;16.08;62.78
54248;BME280;40161;39.768;2.722;2023-04-01T00:50:59;101148.25;;;16.06;62.34
54248;BME280;40161;39.768;2.722;2023-04-01T00:53:27;101152.59;;;16.04;63.47
54248;BME280;40161;39.768;2.722;2023-04-01T00:56:07;101163.25;;;15.98;63.42
54248;BME280;40161;39.768;2.722;2023-04-01T00:58:40;101171.91;;;15.86;64.85
54248;BME280;40161;39.768;2.722;2023-04-01T01:01:08;101155.28;;;15.68;65.28
54248;BME280;40161;39.768;2.722;2023-04-01T01:03:33;101124.84;;;15.75;64.73
54248;BME280;40161;39.768;2.722;2023-04-01T01:06:14;101163.28;;;16.12;63.86
54248;BME280;40161;39.768;2.722;2023-04-01T01:08:51;101180.31;;;16.25;62.91
54248;BME280;40161;39.768;2.722;2023-04-01T01:11:28;101187.84;;;16.21;63.70
54248;BME280;40161;39.768;2.722;2023-04-01T01:14:07;101185.88;;;16.36;62.93
54248;BME280;40161;39.768;2.722;2023-04-01T01:16:42;101197.31;;;16.31;63.02
54248;BME280;40161;39.768;2.722;2023-04-01T01:22:30;101193.75;;;16.27;62.73
54248;BME280;40161;39.768;2.722;2023-04-01T01:28:36;101156.94;;;16.05;61.68
54248;BME280;40161;39.768;2.722;2023-04-01T01:30:57;101193.75;;;16.27;61.60
54248;BME280;40161;39.768;2.722;2023-04-01T01:33:47;101166.03;;;15.95;62.44
54248;BME280;40161;39.768;2.722;2023-04-01T01:36:16;101219.41;;;15.92;64.66
54248;BME280;40161;39.768;2.722;2023-04-01T01:38:47;101217.41;;;15.85;63.38
54248;BME280;40161;39.768;2.722;2023-04-01T01:41:16;101263.63;;;15.81;64.80
54248;BME280;40161;39.768;2.722;2023-04-01T01:43:44;101236.03;;;15.99;63.99
54248;BME280;40161;39.768;2.722;2023-04-01T01:46:15;101262.53;;;16.03;64.18
54248;BME280;40161;39.768;2.722;2023-04-01T01:48:43;101254.63;;;15.98;63.62
54248;BME280;40161;39.768;2.722;2023-04-01T01:51:11;101281.13;;;16.06;63.09
54248;BME280;40161;39.768;2.722;2023-04-01T01:53:36;101266.41;;;15.81;64.86
54248;BME280;40161;39.768;2.722;2023-04-01T01:56:03;101268.03;;;15.93;64.27
54248;BME280;40161;39.768;2.722;2023-04-01T01:58:34;101220.75;;;15.42;64.37
54248;BME280;40161;39.768;2.722;2023-04-01T02:01:07;101286.50;;;15.71;65.32
54248;BME280;40161;39.768;2.722;2023-04-01T02:03:37;101279.41;;;15.73;65.81
54248;BME280;40161;39.768;2.722;2023-04-01T02:06:07;101260.09;;;15.84;64.65
54248;BME280;40161;39.768;2.722;2023-04-01T02:11:07;101222.91;;;15.78;64.03
54248;BME280;40161;39.768;2.722;2023-04-01T02:13:43;101270.47;;;16.05;63.63
54248;BME280;40161;39.768;2.722;2023-04-01T02:16:27;101260.91;;;15.92;62.68
54248;BME280;40161;39.768;2.722;2023-04-01T02:18:55;101278.28;;;15.85;63.37
54248;BME280;40161;39.768;2.722;2023-04-01T02:21:24;101278.22;;;15.71;64.66
54248;BME280;40161;39.768;2.722;2023-04-01T02:23:53;101281.41;;;15.76;64.54
54248;BME280;40161;39.768;2.722;2023-04-01T02:26:20;101279.88;;;15.93;64.00
54248;BME280;40161;39.768;2.722;2023-04-01T02:28:46;101233.81;;;15.46;64.52
54248;BME280;40161;39.768;2.722;2023-04-01T02:31:14;101289.78;;;15.90;64.32
54248;BME280;40161;39.768;2.722;2023-04-01T02:33:41;101290.59;;;15.98;63.64
54248;BME280;40161;39.768;2.722;2023-04-01T02:36:12;101276.31;;;15.93;64.26
54248;BME280;40161;39.768;2.722;2023-04-01T02:38:38;101251.25;;;15.57;65.37
54248;BME280;40161;39.768;2.722;2023-04-01T02:41:04;101271.09;;;15.66;64.61
54248;BME280;40161;39.768;2.722;2023-04-01T02:43:31;101231.09;;;15.56;65.25
54248;BME280;40161;39.768;2.722;2023-04-01T02:45:57;101267.97;;;15.82;65.01
54248;BME280;40161;39.768;2.722;2023-04-01T02:48:22;101264.84;;;15.87;64.61
54248;BME280;40161;39.768;2.722;2023-04-01T02:50:48;101238.31;;;15.79;63.83
54248;BME280;40161;39.768;2.722;2023-04-01T02:53:13;101241.94;;;15.86;63.18
54248;BME280;40161;39.768;2.722;2023-04-01T02:55:39;101268.47;;;16.09;63.24
54248;BME280;40161;39.768;2.722;2023-04-01T02:58:04;101266.16;;;16.18;62.59
54248;BME280;40161;39.768;2.722;2023-04-01T03:00:30;101265.75;;;16.20;63.42
54248;BME280;40161;39.768;2.722;2023-04-01T03:02:56;101234.03;;;15.96;62.94
54248;BME280;40161;39.768;2.722;2023-04-01T03:05:22;101268.88;;;16.07;63.08
54248;BME280;40161;39.768;2.722;2023-04-01T03:07:48;101283.06;;;15.95;63.34
54248;BME280;40161;39.768;2.722;2023-04-01T03:10:13;101292.63;;;16.12;63.29
54248;BME280;40161;39.768;2.722;2023-04-01T03:12:40;101274.78;;;16.06;63.37
54248;BME280;40161;39.768;2.722;2023-04-01T03:15:06;101286.31;;;16.19;63.14
54248;BME280;40161;39.768;2.722;2023-04-01T03:17:31;101282.00;;;16.21;62.54
54248;BME280;40161;39.768;2.722;2023-04-01T03:19:57;101275.59;;;16.06;62.69
54248;BME280;40161;39.768;2.722;2023-04-01T03:22:22;101267.25;;;15.99;63.67
54248;BME280;40161;39.768;2.722;2023-04-01T03:24:48;101275.25;;;16.19;63.48
54248;BME280;40161;39.768;2.722;2023-04-01T03:27:14;101266.13;;;16.07;63.37
54248;BME280;40161;39.768;2.722;2023-04-01T03:29:40;101267.72;;;16.12;63.97
54248;BME280;40161;39.768;2.722;2023-04-01T03:32:06;101223.69;;;15.78;64.19
54248;BME280;40161;39.768;2.722;2023-04-01T03:34:31;101269.66;;;16.04;64.67
54248;BME280;40161;39.768;2.722;2023-04-01T03:36:57;101275.56;;;15.99;64.58
54248;BME280;40161;39.768;2.722;2023-04-01T03:39:23;101275.19;;;15.97;64.41
54248;BME280;40161;39.768;2.722;2023-04-01T03:41:48;101271.16;;;15.84;64.72
54248;BME280;40161;39.768;2.722;2023-04-01T03:44:14;101229.13;;;15.64;64.83
54248;BME280;40161;39.768;2.722;2023-04-01T03:46:40;101267.66;;;15.94;64.20
54248;BME280;40161;39.768;2.722;2023-04-01T03:49:07;101275.59;;;16.10;64.06
54248;BME280;40161;39.768;2.722;2023-04-01T03:51:41;101287.50;;;16.10;63.18
54248;BME280;40161;39.768;2.722;2023-04-01T03:54:08;101243.53;;;15.91;63.32
54248;BME280;40161;39.768;2.722;2023-04-01T03:56:34;101288.63;;;16.02;63.45
54248;BME280;40161;39.768;2.722;2023-04-01T03:59:03;101287.03;;;15.94;63.71
54248;BME280;40161;39.768;2.722;2023-04-01T04:01:29;101299.75;;;16.20;62.45
54248;BME280;40161;39.768;2.722;2023-04-01T04:03:55;101294.66;;;16.26;61.46
54248;BME280;40161;39.768;2.722;2023-04-01T04:06:21;101241.53;;;15.88;61.29
54248;BME280;40161;39.768;2.722;2023-04-01T04:08:47;101287.88;;;16.16;61.95
54248;BME280;40161;39.768;2.722;2023-04-01T04:11:13;101298.19;;;16.23;61.67
54248;BME280;40161;39.768;2.722;2023-04-01T04:13:39;101310.91;;;16.34;60.98
54248;BME280;40161;39.768;2.722;2023-04-01T04:16:05;101296.22;;;16.27;61.53
54248;BME280;40161;39.768;2.722;2023-04-01T04:18:31;101288.63;;;16.02;62.03
54248;BME280;40161;39.768;2.722;2023-04-01T04:20:56;101322.38;;;16.33;60.98
54248;BME280;40161;39.768;2.722;2023-04-01T04:23:22;101311.31;;;16.40;59.82
54248;BME280;40161;39.768;2.722;2023-04-01T04:26:01;101310.91;;;16.38;60.24
54248;BME280;40161;39.768;2.722;2023-04-01T04:28:29;101282.75;;;16.14;61.00
54248;BME280;40161;39.768;2.722;2023-04-01T04:30:55;101320.38;;;16.30;61.36
54248;BME280;40161;39.768;2.722;2023-04-01T04:33:22;101298.16;;;16.12;61.04
54248;BME280;40161;39.768;2.722;2023-04-01T04:35:48;101325.88;;;16.19;61.75
54248;BME280;40161;39.768;2.722;2023-04-01T04:38:13;101334.19;;;16.23;61.96
54248;BME280;40161;39.768;2.722;2023-04-01T04:40:39;101308.38;;;15.90;61.80
54248;BME280;40161;39.768;2.722;2023-04-01T04:43:05;101351.56;;;16.12;61.63
54248;BME280;40161;39.768;2.722;2023-04-01T04:45:32;101273.41;;;15.64;62.76
54248;BME280;40161;39.768;2.722;2023-04-01T04:47:58;101305.19;;;15.92;62.35
54248;BME280;40161;39.768;2.722;2023-04-01T04:50:24;101296.44;;;15.79;62.20
54248;BME280;40161;39.768;2.722;2023-04-01T04:52:50;101347.56;;;16.06;63.19
54248;BME280;40161;39.768;2.722;2023-04-01T04:55:16;101345.50;;;15.89;63.77
54248;BME280;40161;39.768;2.722;2023-04-01T04:57:42;101349.44;;;15.81;63.88
54248;BME280;40161;39.768;2.722;2023-04-01T05:00:08;101349.50;;;15.95;63.38
54248;BME280;40161;39.768;2.722;2023-04-01T05:02:35;101348.31;;;16.00;63.46
54248;BME280;40161;39.768;2.722;2023-04-01T05:05:00;101345.78;;;15.66;65.15
54248;BME280;40161;39.768;2.722;2023-04-01T05:07:26;101363.13;;;15.63;65.26
54248;BME280;40161;39.768;2.722;2023-04-01T05:09:51;101317.59;;;15.53;65.04
54248;BME280;40161;39.768;2.722;2023-04-01T05:12:17;101368.44;;;15.89;64.71
54248;BME280;40161;39.768;2.722;2023-04-01T05:14:42;101363.69;;;15.83;64.60
54248;BME280;40161;39.768;2.722;2023-04-01T05:17:09;101365.84;;;15.56;66.57
54248;BME280;40161;39.768;2.722;2023-04-01T05:19:35;101332.59;;;15.45;65.34
54248;BME280;40161;39.768;2.722;2023-04-01T05:22:01;101336.19;;;15.53;64.88
54248;BME280;40161;39.768;2.722;2023-04-01T05:24:26;101380.81;;;15.51;66.34
54248;BME280;40161;39.768;2.722;2023-04-01T05:26:52;101393.03;;;15.47;65.64
54248;BME280;40161;39.768;2.722;2023-04-01T05:29:17;101393.28;;;15.31;66.99
54248;BME280;40161;39.768;2.722;2023-04-01T05:31:43;101362.41;;;15.22;66.98
54248;BME280;40161;39.768;2.722;2023-04-01T05:34:08;101405.34;;;15.53;67.03
54248;BME280;40161;39.768;2.722;2023-04-01T05:36:34;101414.19;;;15.69;65.51
54248;BME280;40161;39.768;2.722;2023-04-01T05:39:00;101390.75;;;15.56;65.55
54248;BME280;40161;39.768;2.722;2023-04-01T05:41:26;101426.13;;;15.80;65.24
54248;BME280;40161;39.768;2.722;2023-04-01T05:43:51;101420.59;;;15.80;65.14
54248;BME280;40161;39.768;2.722;2023-04-01T05:46:17;101420.56;;;15.77;65.81
54248;BME280;40161;39.768;2.722;2023-04-01T05:48:42;101397.81;;;15.53;65.85
54248;BME280;40161;39.768;2.722;2023-04-01T05:51:13;101433.13;;;15.67;65.75
54248;BME280;40161;39.768;2.722;2023-04-01T05:53:39;101399.47;;;15.65;65.94
54248;BME280;40161;39.768;2.722;2023-04-01T05:56:05;101434.53;;;15.98;65.78
54248;BME280;40161;39.768;2.722;2023-04-01T05:58:30;101444.88;;;16.08;65.68
54248;BME280;40161;39.768;2.722;2023-04-01T06:01:04;101461.94;;;16.14;65.90
54248;BME280;40161;39.768;2.722;2023-04-01T06:03:29;101396.50;;;15.88;66.13
54248;BME280;40161;39.768;2.722;2023-04-01T06:05:55;101437.00;;;16.10;65.80
54248;BME280;40161;39.768;2.722;2023-04-01T06:08:21;101439.84;;;16.25;66.04
54248;BME280;40161;39.768;2.722;2023-04-01T06:10:55;101450.97;;;16.32;66.66
54248;BME280;40161;39.768;2.722;2023-04-01T06:30:44;101426.72;;;16.11;68.28
54248;BME280;40161;39.768;2.722;2023-04-01T06:48:23;101489.22;;;16.85;67.21
54248;BME280;40161;39.768;2.722;2023-04-01T06:51:20;101490.44;;;16.98;67.60
54248;BME280;40161;39.768;2.722;2023-04-01T06:56:32;101471.78;;;16.88;67.87
54248;BME280;40161;39.768;2.722;2023-04-01T06:59:02;101447.16;;;16.72;68.33
54248;BME280;40161;39.768;2.722;2023-04-01T07:01:35;101459.84;;;16.73;68.32
54248;BME280;40161;39.768;2.722;2023-04-01T07:04:11;101480.56;;;16.97;68.05
54248;BME280;40161;39.768;2.722;2023-04-01T07:06:49;101487.69;;;17.02;67.59
54248;BME280;40161;39.768;2.722;2023-04-01T07:09:19;101488.91;;;17.08;66.67
54248;BME280;40161;39.768;2.722;2023-04-01T07:11:46;101450.81;;;16.83;65.37
54248;BME280;40161;39.768;2.722;2023-04-01T07:14:25;101489.31;;;17.17;65.06
54248;BME280;40161;39.768;2.722;2023-04-01T07:17:16;101491.28;;;17.24;64.96
54248;BME280;40161;39.768;2.722;2023-04-01T07:20:05;101452.84;;;17.04;65.14
54248;BME280;40161;39.768;2.722;2023-04-01T07:22:42;101489.72;;;17.30;66.94
54248;BME280;40161;39.768;2.722;2023-04-01T07:25:15;101487.69;;;17.09;67.79
54248;BME280;40161;39.768;2.722;2023-04-01T07:27:42;101501.22;;;17.18;67.82
54248;BME280;40161;39.768;2.722;2023-04-01T07:30:15;101449.63;;;16.92;64.86
54248;BME280;40161;39.768;2.722;2023-04-01T07:35:35;101495.69;;;17.32;62.01
54248;BME280;40161;39.768;2.722;2023-04-01T07:43:56;101504.44;;;17.48;57.50
54248;BME280;40161;39.768;2.722;2023-04-01T07:57:12;101511.94;;;17.48;52.86
54248;BME280;40161;39.768;2.722;2023-04-01T08:02:59;101524.25;;;17.68;51.61
54248;BME280;40161;39.768;2.722;2023-04-01T08:05:39;101538.94;;;17.69;51.01
54248;BME280;40161;39.768;2.722;2023-04-01T08:10:59;101504.81;;;17.58;50.49
54248;BME280;40161;39.768;2.722;2023-04-01T08:16:20;101535.34;;;17.68;49.63
54248;BME280;40161;39.768;2.722;2023-04-01T08:19:00;101547.69;;;17.78;49.41
54248;BME280;40161;39.768;2.722;2023-04-01T08:21:32;101533.00;;;17.70;49.37
54248;BME280;40161;39.768;2.722;2023-04-01T08:24:10;101490.56;;;17.48;49.66
54248;BME280;40161;39.768;2.722;2023-04-01T08:26:45;101521.91;;;17.77;49.83
54248;BME280;40161;39.768;2.722;2023-04-01T08:29:23;101564.75;;;18.05;50.01
54248;BME280;40161;39.768;2.722;2023-04-01T08:31:56;101562.78;;;18.06;49.14
54248;BME280;40161;39.768;2.722;2023-04-01T08:34:42;101532.22;;;17.91;49.14
54248;BME280;40161;39.768;2.722;2023-04-01T08:37:17;101569.13;;;18.10;49.81
54248;BME280;40161;39.768;2.722;2023-04-01T08:39:48;101551.66;;;17.98;49.81
54248;BME280;40161;39.768;2.722;2023-04-01T08:51:03;101533.03;;;17.85;48.04
54248;BME280;40161;39.768;2.722;2023-04-01T08:59:43;101552.47;;;17.95;50.05
54248;BME280;40161;39.768;2.722;2023-04-01T09:02:45;101601.25;;;18.32;50.02
54248;BME280;40161;39.768;2.722;2023-04-01T09:24:21;101623.09;;;18.23;50.54
54248;BME280;40161;39.768;2.722;2023-04-01T09:32:39;101625.06;;;18.19;52.17
54248;BME280;40161;39.768;2.722;2023-04-01T09:40:37;101632.63;;;18.22;52.10
54248;BME280;40161;39.768;2.722;2023-04-01T10:01:19;101573.84;;;17.66;52.16
54248;BME280;40161;39.768;2.722;2023-04-01T10:07:07;101627.47;;;18.24;50.37
54248;BME280;40161;39.768;2.722;2023-04-01T10:15:11;101619.13;;;18.24;51.00
54248;BME280;40161;39.768;2.722;2023-04-01T10:45:07;101568.63;;;18.65;47.44
54248;BME280;40161;39.768;2.722;2023-04-01T10:48:11;101560.28;;;18.65;48.96
54248;BME280;40161;39.768;2.722;2023-04-01T10:59:01;101557.50;;;18.83;48.69
54248;BME280;40161;39.768;2.722;2023-04-01T11:08:02;101541.16;;;18.92;47.31
54248;BME280;40161;39.768;2.722;2023-04-01T11:24:55;101544.69;;;19.07;46.86
54248;BME280;40161;39.768;2.722;2023-04-01T11:33:38;101512.03;;;19.21;48.48
54248;BME280;40161;39.768;2.722;2023-04-01T11:41:41;101498.50;;;19.24;48.05
54248;BME280;40161;39.768;2.722;2023-04-01T11:44:18;101505.66;;;19.25;47.63
54248;BME280;40161;39.768;2.722;2023-04-01T11:49:57;101492.88;;;19.34;50.09
54248;BME280;40161;39.768;2.722;2023-04-01T12:09:04;101458.72;;;19.27;45.95
54248;BME280;40161;39.768;2.722;2023-04-01T12:14:54;101443.19;;;19.33;43.32
54248;BME280;40161;39.768;2.722;2023-04-01T12:52:46;101429.28;;;19.81;50.08
54248;BME280;40161;39.768;2.722;2023-04-01T12:55:36;101414.22;;;19.75;51.67
54248;BME280;40161;39.768;2.722;2023-04-01T13:12:37;101394.06;;;19.57;49.23
54248;BME280;40161;39.768;2.722;2023-04-01T13:15:14;101401.59;;;19.60;48.95
54248;BME280;40161;39.768;2.722;2023-04-01T13:24:00;101378.94;;;19.65;50.35
54248;BME280;40161;39.768;2.722;2023-04-01T13:29:25;101378.44;;;19.74;49.50
54248;BME280;40161;39.768;2.722;2023-04-01T13:32:11;101364.13;;;19.72;47.91
54248;BME280;40161;39.768;2.722;2023-04-01T13:35:28;101378.78;;;19.79;49.85
54248;BME280;40161;39.768;2.722;2023-04-01T13:40:31;101393.34;;;19.94;47.96
54248;BME280;40161;39.768;2.722;2023-04-01T13:43:24;101383.34;;;20.00;44.46
54248;BME280;40161;39.768;2.722;2023-04-01T13:46:12;101368.75;;;19.89;43.32
54248;BME280;40161;39.768;2.722;2023-04-01T13:51:26;101367.75;;;19.68;44.74
54248;BME280;40161;39.768;2.722;2023-04-01T13:57:00;101255.31;;;18.72;45.08
54248;BME280;40161;39.768;2.722;2023-04-01T13:59:50;101359.53;;;19.51;43.96
54248;BME280;40161;39.768;2.722;2023-04-01T14:02:50;101344.47;;;19.48;43.24
54248;BME280;40161;39.768;2.722;2023-04-01T14:10:43;101318.03;;;19.67;42.90
54248;BME280;40161;39.768;2.722;2023-04-01T14:16:05;101253.84;;;19.43;41.54
54248;BME280;40161;39.768;2.722;2023-04-01T14:19:39;101318.63;;;19.85;39.89
54248;BME280;40161;39.768;2.722;2023-04-01T14:33:31;101210.13;;;19.40;38.11
54248;BME280;40161;39.768;2.722;2023-04-01T14:36:22;101313.59;;;20.07;37.31
54248;BME280;40161;39.768;2.722;2023-04-01T14:50:13;101283.63;;;20.15;34.49
54248;BME280;40161;39.768;2.722;2023-04-01T14:52:42;101276.16;;;20.08;34.68
54248;BME280;40161;39.768;2.722;2023-04-01T15:00:42;101278.84;;;20.15;35.62
54248;BME280;40161;39.768;2.722;2023-04-01T15:03:22;101262.28;;;20.05;33.00
54248;BME280;40161;39.768;2.722;2023-04-01T15:08:29;101254.75;;;20.02;33.59
54248;BME280;40161;39.768;2.722;2023-04-01T15:13:51;101264.88;;;20.19;34.10
54248;BME280;40161;39.768;2.722;2023-04-01T15:22:06;101239.00;;;20.19;35.02
54248;BME280;40161;39.768;2.722;2023-04-01T15:30:28;101238.97;;;20.22;34.19
54248;BME280;40161;39.768;2.722;2023-04-01T15:33:28;101223.34;;;20.28;35.32
54248;BME280;40161;39.768;2.722;2023-04-01T15:36:16;101175.19;;;20.01;34.80
54248;BME280;40161;39.768;2.722;2023-04-01T15:41:15;101194.91;;;20.13;35.04
54248;BME280;40161;39.768;2.722;2023-04-01T15:43:49;101208.69;;;20.24;36.00
54248;BME280;40161;39.768;2.722;2023-04-01T15:46:25;101204.72;;;20.22;34.08
54248;BME280;40161;39.768;2.722;2023-04-01T15:49:06;101193.16;;;20.23;34.79
54248;BME280;40161;39.768;2.722;2023-04-01T15:51:58;101187.19;;;20.25;35.44
54248;BME280;40161;39.768;2.722;2023-04-01T15:58:06;101183.22;;;20.22;34.62
54248;BME280;40161;39.768;2.722;2023-04-01T16:02:48;101156.94;;;20.23;35.08
54248;BME280;40161;39.768;2.722;2023-04-01T16:05:25;101156.16;;;20.23;34.82
54248;BME280;40161;39.768;2.722;2023-04-01T16:13:51;101131.63;;;20.14;33.79
54248;BME280;40161;39.768;2.722;2023-04-01T16:22:10;101109.47;;;20.30;34.09
54248;BME280;40161;39.768;2.722;2023-04-01T16:27:15;101107.47;;;20.31;33.37
54248;BME280;40161;39.768;2.722;2023-04-01T16:29:59;101076.13;;;20.23;32.24
54248;BME280;40161;39.768;2.722;2023-04-01T16:35:25;101085.09;;;20.34;32.02
54248;BME280;40161;39.768;2.722;2023-04-01T16:38:05;101089.84;;;20.37;32.72
54248;BME280;40161;39.768;2.722;2023-04-01T16:49:08;101076.25;;;20.16;33.96
54248;BME280;40161;39.768;2.722;2023-04-01T16:51:52;101089.72;;;20.21;34.07
54248;BME280;40161;39.768;2.722;2023-04-01T17:02:35;101029.78;;;19.59;35.25
54248;BME280;40161;39.768;2.722;2023-04-01T17:05:10;101074.66;;;19.91;35.33
54248;BME280;40161;39.768;2.722;2023-04-01T17:07:46;101086.28;;;19.86;34.32
54248;BME280;40161;39.768;2.722;2023-04-01T17:10:28;101082.88;;;19.75;35.08
54248;BME280;40161;39.768;2.722;2023-04-01T17:13:52;101077.34;;;19.72;35.44
54248;BME280;40161;39.768;2.722;2023-04-01T17:30:37;101069.38;;;19.12;37.48
54248;BME280;40161;39.768;2.722;2023-04-01T17:41:25;101083.09;;;18.92;37.78
54248;BME280;40161;39.768;2.722;2023-04-01T17:52:38;101083.75;;;18.69;39.45
54248;BME280;40161;39.768;2.722;2023-04-01T17:57:51;101088.91;;;18.67;40.24
54248;BME280;40161;39.768;2.722;2023-04-01T18:00:59;101097.69;;;18.66;39.91
54248;BME280;40161;39.768;2.722;2023-04-01T18:11:58;101103.78;;;18.50;40.74
54248;BME280;40161;39.768;2.722;2023-04-01T18:14:50;101111.72;;;18.52;40.82
54248;BME280;40161;39.768;2.722;2023-04-01T18:17:25;101111.28;;;18.53;40.74
54248;BME280;40161;39.768;2.722;2023-04-01T18:20:11;101050.22;;;18.05;41.57
54248;BME280;40161;39.768;2.722;2023-04-01T18:22:45;101075.38;;;18.32;41.65
54248;BME280;40161;39.768;2.722;2023-04-01T18:25:15;101103.91;;;18.36;42.42
54248;BME280;40161;39.768;2.722;2023-04-01T18:30:43;101102.56;;;18.06;42.74
54248;BME280;40161;39.768;2.722;2023-04-01T18:33:26;101105.31;;;18.10;42.90
54248;BME280;40161;39.768;2.722;2023-04-01T18:38:38;101092.38;;;17.85;43.51
54248;BME280;40161;39.768;2.722;2023-04-01T18:47:03;101090.88;;;17.77;44.75
54248;BME280;40161;39.768;2.722;2023-04-01T18:57:27;101088.91;;;17.70;46.26
54248;BME280;40161;39.768;2.722;2023-04-01T19:03:07;101090.63;;;17.46;46.00
54248;BME280;40161;39.768;2.722;2023-04-01T19:05:40;101079.16;;;17.37;46.75
54248;BME280;40161;39.768;2.722;2023-04-01T19:14:15;101105.75;;;17.35;47.58
54248;BME280;40161;39.768;2.722;2023-04-01T19:21:58;101070.25;;;16.90;49.32
54248;BME280;40161;39.768;2.722;2023-04-01T19:29:54;101081.75;;;16.78;48.87
54248;BME280;40161;39.768;2.722;2023-04-01T19:35:23;101056.84;;;16.53;47.01
54248;BME280;40161;39.768;2.722;2023-04-01T19:40:58;101091.22;;;16.98;47.40
54248;BME280;40161;39.768;2.722;2023-04-01T19:46:05;101098.75;;;16.94;48.05
54248;BME280;40161;39.768;2.722;2023-04-01T19:52:00;101098.34;;;16.99;47.60
54248;BME280;40161;39.768;2.722;2023-04-01T19:57:09;101052.03;;;16.89;48.07
54248;BME280;40161;39.768;2.722;2023-04-01T20:04:51;101091.28;;;16.77;49.38
54248;BME280;40161;39.768;2.722;2023-04-01T20:07:29;101091.22;;;16.95;49.00
54248;BME280;40161;39.768;2.722;2023-04-01T20:10:07;101044.53;;;16.79;48.41
54248;BME280;40161;39.768;2.722;2023-04-01T20:15:41;101065.84;;;17.11;48.86
54248;BME280;40161;39.768;2.722;2023-04-01T20:18:17;101071.72;;;17.16;48.25
54248;BME280;40161;39.768;2.722;2023-04-01T20:23:59;101031.47;;;16.90;49.27
54248;BME280;40161;39.768;2.722;2023-04-01T20:26:33;101008.50;;;16.79;49.95
54248;BME280;40161;39.768;2.722;2023-04-01T20:29:35;101008.38;;;17.15;48.97
54248;BME280;40161;39.768;2.722;2023-04-01T20:35:06;100970.34;;;17.12;49.81
54248;BME280;40161;39.768;2.722;2023-04-01T20:40:51;100985.88;;;16.95;49.27
54248;BME280;40161;39.768;2.722;2023-04-01T20:45:58;100994.28;;;16.77;50.15
54248;BME280;40161;39.768;2.722;2023-04-01T20:50:59;101021.94;;;16.91;51.08
54248;BME280;40161;39.768;2.722;2023-04-01T20:53:36;101032.28;;;16.83;51.21
54248;BME280;40161;39.768;2.722;2023-04-01T21:01:44;101019.94;;;16.92;52.10
54248;BME280;40161;39.768;2.722;2023-04-01T21:04:22;101023.53;;;16.85;52.21
54248;BME280;40161;39.768;2.722;2023-04-01T21:07:19;101003.03;;;16.54;53.08
54248;BME280;40161;39.768;2.722;2023-04-01T21:10:17;100993.16;;;16.49;52.94
54248;BME280;40161;39.768;2.722;2023-04-01T21:12:52;101039.81;;;16.76;53.22
54248;BME280;40161;39.768;2.722;2023-04-01T21:15:30;101037.41;;;16.71;54.22
54248;BME280;40161;39.768;2.722;2023-04-01T21:20:59;101075.81;;;16.69;54.67
54248;BME280;40161;39.768;2.722;2023-04-01T21:29:33;101067.91;;;16.74;56.75
54248;BME280;40161;39.768;2.722;2023-04-01T21:37:37;101141.13;;;16.91;58.54
54248;BME280;40161;39.768;2.722;2023-04-01T21:57:03;101308.03;;;14.17;85.81
54248;BME280;40161;39.768;2.722;2023-04-01T22:08:47;101427.75;;;14.06;92.80
54248;BME280;40161;39.768;2.722;2023-04-01T22:17:14;101413.66;;;13.84;96.28
54248;BME280;40161;39.768;2.722;2023-04-01T22:19:48;101405.41;;;13.61;95.03
54248;BME280;40161;39.768;2.722;2023-04-01T22:22:22;101396.97;;;13.50;92.07
54248;BME280;40161;39.768;2.722;2023-04-01T22:25:04;101381.69;;;13.30;96.72
54248;BME280;40161;39.768;2.722;2023-04-01T22:27:40;101369.44;;;13.27;100.00
54248;BME280;40161;39.768;2.722;2023-04-01T22:30:28;101362.16;;;13.39;99.55
54248;BME280;40161;39.768;2.722;2023-04-01T22:41:36;101303.25;;;13.50;99.00
54248;BME280;40161;39.768;2.722;2023-04-01T22:44:37;101278.91;;;13.29;94.60
54248;BME280;40161;39.768;2.722;2023-04-01T22:50:14;101307.88;;;12.97;99.63
54248;BME280;40161;39.768;2.722;2023-04-01T22:52:46;101274.78;;;12.70;100.00
54248;BME280;40161;39.768;2.722;2023-04-01T22:55:28;101287.28;;;12.87;100.00
54248;BME280;40161;39.768;2.722;2023-04-01T22:58:05;101290.97;;;12.75;100.00
54248;BME280;40161;39.768;2.722;2023-04-01T23:00:44;101327.34;;;12.85;100.00
54248;BME280;40161;39.768;2.722;2023-04-01T23:03:17;101315.75;;;12.52;100.00